ETD71M EGLL-OMAA
Flight info
| Callsign | ETD71M |
|---|---|
| Flight time | N/A |
| Altitude | 37000 |
| Route | DET L6 DVR UL9 KONAN DCT KOK DCT REMBA DCT LIRSU DCT LALMI DCT ABTAL DCT LATLO DCT OBEDI DCT BERTA DCT VANAX DCT NOVLO DCT IRDIV DCT REMSO DCT MEDUX UM867 KOGAT DCT DISOR DCT FSK DCT RIKSO UP14 LAVTA UN135 NESIL UT39 TOMBI DCT BALMA/N0485F390 UR655 CAK UN310 LATEB N310 BASEM R785 RASLI P559 TRF R23 NEVOL N318 DASVA N685 ORSIS/N0492F350 N685 UMEVU Q415 UKILI |
| Aircraft | A35K/H-SDE2E3GHIJ1J3J4J5LM1ORWXY/LB1D1 |
Departure
| Time | N/A |
|---|---|
| Airport | London Heathrow Airport (EGLL) |
Arrival
| Time | 2026-05-06 20:49 |
|---|---|
| Airport | Zayed International Airport (OMAA) |
| Time | Latitude | Longitude | Altitude | Speed | Heading |
|---|---|---|---|---|---|
| 2026-05-06 20:11 | 25.58495 | 52.06812 | 38833 ft | 524 kts | 127° |
| 2026-05-06 20:12 | 25.54631 | 52.13628 | 38829 ft | 524 kts | 127° |
| 2026-05-06 20:12 | 25.50754 | 52.20486 | 38826 ft | 524 kts | 127° |
| 2026-05-06 20:13 | 25.46930 | 52.27353 | 38822 ft | 526 kts | 122° |
| 2026-05-06 20:13 | 25.43586 | 52.34520 | 38826 ft | 528 kts | 121° |
| 2026-05-06 20:14 | 25.40321 | 52.41784 | 38821 ft | 528 kts | 120° |
| 2026-05-06 20:14 | 25.36964 | 52.49023 | 38685 ft | 526 kts | 123° |
| 2026-05-06 20:15 | 25.35212 | 52.52530 | 38447 ft | 526 kts | 123° |
| 2026-05-06 20:15 | 25.33420 | 52.56054 | 38185 ft | 527 kts | 124° |
| 2026-05-06 20:15 | 25.31610 | 52.59611 | 37929 ft | 528 kts | 123° |
| 2026-05-06 20:15 | 25.29813 | 52.63162 | 37650 ft | 528 kts | 123° |
| 2026-05-06 20:16 | 25.28035 | 52.66697 | 37385 ft | 529 kts | 123° |
| 2026-05-06 20:16 | 25.26274 | 52.70230 | 37125 ft | 530 kts | 122° |
| 2026-05-06 20:16 | 25.24635 | 52.73881 | 36707 ft | 529 kts | 118° |
| 2026-05-06 20:16 | 25.23135 | 52.77605 | 36060 ft | 530 kts | 117° |
| 2026-05-06 20:17 | 25.21682 | 52.81372 | 35348 ft | 531 kts | 116° |
| 2026-05-06 20:17 | 25.20227 | 52.85151 | 34642 ft | 533 kts | 116° |
| 2026-05-06 20:17 | 25.18769 | 52.88880 | 33864 ft | 536 kts | 117° |
| 2026-05-06 20:17 | 25.17259 | 52.92672 | 32973 ft | 538 kts | 117° |
| 2026-05-06 20:18 | 25.15740 | 52.96432 | 32141 ft | 539 kts | 117° |
| 2026-05-06 20:18 | 25.14203 | 53.00203 | 31359 ft | 539 kts | 117° |
| 2026-05-06 20:18 | 25.12658 | 53.03980 | 30686 ft | 536 kts | 117° |
| 2026-05-06 20:18 | 25.11133 | 53.07699 | 30059 ft | 533 kts | 117° |
| 2026-05-06 20:19 | 25.09480 | 53.11351 | 29358 ft | 526 kts | 124° |
| 2026-05-06 20:19 | 25.07532 | 53.14699 | 28719 ft | 520 kts | 126° |
| 2026-05-06 20:19 | 25.05525 | 53.17972 | 28116 ft | 514 kts | 127° |
| 2026-05-06 20:19 | 25.03481 | 53.21220 | 27492 ft | 509 kts | 127° |
| 2026-05-06 20:20 | 25.01451 | 53.24406 | 26903 ft | 505 kts | 127° |
| 2026-05-06 20:20 | 24.99459 | 53.27521 | 26297 ft | 501 kts | 127° |
| 2026-05-06 20:20 | 24.97460 | 53.30648 | 25689 ft | 497 kts | 127° |
| 2026-05-06 20:20 | 24.95473 | 53.33764 | 25083 ft | 493 kts | 127° |
| 2026-05-06 20:21 | 24.93507 | 53.36854 | 24486 ft | 489 kts | 126° |
| 2026-05-06 20:21 | 24.91569 | 53.39912 | 23886 ft | 485 kts | 125° |
| 2026-05-06 20:21 | 24.89835 | 53.43032 | 23404 ft | 479 kts | 121° |
| 2026-05-06 20:21 | 24.88176 | 53.46199 | 22677 ft | 476 kts | 120° |
| 2026-05-06 20:22 | 24.86560 | 53.49367 | 22006 ft | 472 kts | 120° |
| 2026-05-06 20:22 | 24.84957 | 53.52550 | 21350 ft | 467 kts | 120° |
| 2026-05-06 20:22 | 24.83399 | 53.55655 | 20734 ft | 463 kts | 119° |
| 2026-05-06 20:22 | 24.81862 | 53.58714 | 20163 ft | 457 kts | 119° |
| 2026-05-06 20:23 | 24.80330 | 53.61752 | 19596 ft | 451 kts | 119° |
| 2026-05-06 20:23 | 24.78812 | 53.64754 | 19044 ft | 446 kts | 119° |
| 2026-05-06 20:23 | 24.77320 | 53.67700 | 18500 ft | 440 kts | 119° |
| 2026-05-06 20:23 | 24.75841 | 53.70614 | 17914 ft | 431 kts | 119° |
| 2026-05-06 20:24 | 24.74390 | 53.73469 | 17001 ft | 423 kts | 118° |
| 2026-05-06 20:24 | 24.72948 | 53.76301 | 16521 ft | 416 kts | 118° |
| 2026-05-06 20:24 | 24.71567 | 53.79014 | 16378 ft | 399 kts | 118° |
| 2026-05-06 20:24 | 24.70234 | 53.81631 | 16278 ft | 383 kts | 118° |
| 2026-05-06 20:25 | 24.68959 | 53.84135 | 16130 ft | 370 kts | 118° |
| 2026-05-06 20:25 | 24.67737 | 53.86534 | 15968 ft | 358 kts | 118° |
| 2026-05-06 20:25 | 24.66532 | 53.88897 | 15813 ft | 346 kts | 117° |
| 2026-05-06 20:25 | 24.65373 | 53.91170 | 15635 ft | 336 kts | 117° |
| 2026-05-06 20:26 | 24.64246 | 53.93379 | 15418 ft | 328 kts | 117° |
| 2026-05-06 20:26 | 24.63155 | 53.95558 | 15066 ft | 323 kts | 114° |
| 2026-05-06 20:26 | 24.62217 | 53.97792 | 14720 ft | 319 kts | 111° |
| 2026-05-06 20:26 | 24.61346 | 53.99984 | 14323 ft | 311 kts | 111° |
| 2026-05-06 20:27 | 24.60475 | 54.02144 | 14052 ft | 308 kts | 111° |
| 2026-05-06 20:27 | 24.59592 | 54.04310 | 13823 ft | 309 kts | 111° |
| 2026-05-06 20:27 | 24.58721 | 54.06425 | 13607 ft | 306 kts | 111° |
| 2026-05-06 20:27 | 24.57834 | 54.08569 | 13381 ft | 305 kts | 111° |
| 2026-05-06 20:28 | 24.56959 | 54.10681 | 13177 ft | 305 kts | 111° |
| 2026-05-06 20:28 | 24.56084 | 54.12786 | 12967 ft | 304 kts | 111° |
| 2026-05-06 20:28 | 24.55205 | 54.14897 | 12755 ft | 303 kts | 111° |
| 2026-05-06 20:28 | 24.54326 | 54.17006 | 12612 ft | 303 kts | 111° |
| 2026-05-06 20:29 | 24.53444 | 54.19120 | 12507 ft | 303 kts | 111° |
| 2026-05-06 20:29 | 24.52622 | 54.21224 | 12325 ft | 301 kts | 108° |
| 2026-05-06 20:29 | 24.51902 | 54.23362 | 12135 ft | 300 kts | 107° |
| 2026-05-06 20:29 | 24.51189 | 54.25510 | 11934 ft | 300 kts | 108° |
| 2026-05-06 20:30 | 24.50465 | 54.27658 | 11713 ft | 299 kts | 108° |
| 2026-05-06 20:30 | 24.49008 | 54.31918 | 11314 ft | 297 kts | 109° |
| 2026-05-06 20:30 | 24.48270 | 54.34062 | 11117 ft | 297 kts | 109° |
| 2026-05-06 20:31 | 24.47562 | 54.36117 | 11018 ft | 296 kts | 109° |
| 2026-05-06 20:31 | 24.46839 | 54.38221 | 11006 ft | 296 kts | 109° |
| 2026-05-06 20:31 | 24.46100 | 54.40348 | 11003 ft | 296 kts | 109° |
| 2026-05-06 20:31 | 24.45368 | 54.42452 | 11003 ft | 296 kts | 109° |
| 2026-05-06 20:32 | 24.44640 | 54.44545 | 11003 ft | 292 kts | 109° |
| 2026-05-06 20:32 | 24.43925 | 54.46599 | 10893 ft | 280 kts | 109° |
| 2026-05-06 20:32 | 24.43241 | 54.48567 | 10584 ft | 278 kts | 109° |
| 2026-05-06 20:32 | 24.42557 | 54.50542 | 10068 ft | 273 kts | 110° |
| 2026-05-06 20:33 | 24.41790 | 54.52415 | 9409 ft | 272 kts | 121° |
| 2026-05-06 20:33 | 24.40693 | 54.54102 | 8886 ft | 264 kts | 128° |
| 2026-05-06 20:33 | 24.39558 | 54.55670 | 8759 ft | 265 kts | 128° |
| 2026-05-06 20:33 | 24.38420 | 54.57247 | 8674 ft | 264 kts | 128° |
| 2026-05-06 20:34 | 24.37277 | 54.58838 | 8581 ft | 264 kts | 128° |
| 2026-05-06 20:34 | 24.36151 | 54.60411 | 8491 ft | 264 kts | 128° |
| 2026-05-06 20:34 | 24.35019 | 54.61994 | 8382 ft | 263 kts | 128° |
| 2026-05-06 20:34 | 24.33886 | 54.63579 | 8286 ft | 265 kts | 128° |
| 2026-05-06 20:35 | 24.32743 | 54.65180 | 8203 ft | 264 kts | 128° |
| 2026-05-06 20:35 | 24.31623 | 54.66747 | 8102 ft | 263 kts | 128° |
| 2026-05-06 20:35 | 24.30487 | 54.68336 | 8013 ft | 263 kts | 128° |
| 2026-05-06 20:35 | 24.29362 | 54.69911 | 7915 ft | 263 kts | 128° |
| 2026-05-06 20:36 | 24.28241 | 54.71479 | 7827 ft | 263 kts | 128° |
| 2026-05-06 20:36 | 24.27113 | 54.73056 | 7721 ft | 262 kts | 128° |
| 2026-05-06 20:36 | 24.25982 | 54.74637 | 7631 ft | 262 kts | 128° |
| 2026-05-06 20:36 | 24.24872 | 54.76188 | 7535 ft | 262 kts | 129° |
| 2026-05-06 20:37 | 24.23734 | 54.77777 | 7443 ft | 262 kts | 129° |
| 2026-05-06 20:37 | 24.22623 | 54.79329 | 7345 ft | 262 kts | 129° |
| 2026-05-06 20:37 | 24.21493 | 54.80906 | 7259 ft | 262 kts | 129° |
| 2026-05-06 20:37 | 24.20370 | 54.82477 | 7163 ft | 261 kts | 128° |
| 2026-05-06 20:38 | 24.19258 | 54.84038 | 7061 ft | 261 kts | 129° |
| 2026-05-06 20:38 | 24.18133 | 54.85614 | 6980 ft | 261 kts | 129° |
| 2026-05-06 20:38 | 24.17018 | 54.87174 | 6885 ft | 260 kts | 129° |
| 2026-05-06 20:38 | 24.15914 | 54.88719 | 6794 ft | 260 kts | 129° |
| 2026-05-06 20:39 | 24.14797 | 54.90290 | 6703 ft | 260 kts | 129° |
| 2026-05-06 20:39 | 24.13676 | 54.91859 | 6616 ft | 260 kts | 129° |
| 2026-05-06 20:39 | 24.12646 | 54.93465 | 6487 ft | 260 kts | 120° |
| 2026-05-06 20:39 | 24.12059 | 54.95324 | 6126 ft | 261 kts | 98° |
| 2026-05-06 20:40 | 24.12226 | 54.97255 | 5959 ft | 254 kts | 72° |
| 2026-05-06 20:40 | 24.13158 | 54.98877 | 5698 ft | 252 kts | 42° |
| 2026-05-06 20:40 | 24.14677 | 54.99781 | 5367 ft | 250 kts | 12° |
| 2026-05-06 20:40 | 24.16394 | 54.99770 | 5077 ft | 247 kts | 347° |
| 2026-05-06 20:41 | 24.18037 | 54.99336 | 4799 ft | 245 kts | 344° |
| 2026-05-06 20:41 | 24.19692 | 54.98855 | 4505 ft | 245 kts | 344° |
| 2026-05-06 20:41 | 24.21313 | 54.98322 | 4198 ft | 243 kts | 336° |
| 2026-05-06 20:41 | 24.22688 | 54.97290 | 3981 ft | 234 kts | 311° |
| 2026-05-06 20:42 | 24.23713 | 54.95936 | 3911 ft | 231 kts | 306° |
| 2026-05-06 20:42 | 24.24684 | 54.94547 | 3807 ft | 232 kts | 306° |
| 2026-05-06 20:42 | 24.25669 | 54.93126 | 3729 ft | 232 kts | 306° |
| 2026-05-06 20:42 | 24.26642 | 54.91739 | 3659 ft | 232 kts | 307° |
| 2026-05-06 20:43 | 24.27647 | 54.90348 | 3580 ft | 232 kts | 307° |
| 2026-05-06 20:43 | 24.28309 | 54.89430 | 3523 ft | 232 kts | 307° |
| 2026-05-06 20:43 | 24.29319 | 54.88030 | 3451 ft | 231 kts | 307° |
| 2026-05-06 20:43 | 24.30625 | 54.86218 | 3352 ft | 223 kts | 307° |
| 2026-05-06 20:44 | 24.31267 | 54.85327 | 3317 ft | 217 kts | 307° |
| 2026-05-06 20:44 | 24.32182 | 54.84035 | 3271 ft | 216 kts | 307° |
| 2026-05-06 20:44 | 24.33100 | 54.82733 | 3217 ft | 212 kts | 307° |
| 2026-05-06 20:44 | 24.33972 | 54.81501 | 3082 ft | 201 kts | 307° |
| 2026-05-06 20:45 | 24.34829 | 54.80296 | 2964 ft | 198 kts | 308° |
| 2026-05-06 20:45 | 24.35693 | 54.79108 | 2714 ft | 198 kts | 307° |
| 2026-05-06 20:45 | 24.36524 | 54.77931 | 2447 ft | 196 kts | 307° |
| 2026-05-06 20:45 | 24.37361 | 54.76747 | 2199 ft | 195 kts | 308° |
| 2026-05-06 20:46 | 24.38189 | 54.75580 | 1957 ft | 193 kts | 308° |
| 2026-05-06 20:46 | 24.38983 | 54.74457 | 1719 ft | 180 kts | 308° |
| 2026-05-06 20:46 | 24.39713 | 54.73416 | 1494 ft | 168 kts | 308° |
| 2026-05-06 20:46 | 24.40401 | 54.72444 | 1290 ft | 156 kts | 307° |
| 2026-05-06 20:47 | 24.41053 | 54.71531 | 1092 ft | 147 kts | 309° |
| 2026-05-06 20:47 | 24.41676 | 54.70654 | 934 ft | 146 kts | 308° |
| 2026-05-06 20:47 | 24.42300 | 54.69773 | 759 ft | 146 kts | 309° |
| 2026-05-06 20:47 | 24.42924 | 54.68892 | 580 ft | 145 kts | 309° |
| 2026-05-06 20:48 | 24.43538 | 54.68025 | 387 ft | 143 kts | 309° |
| 2026-05-06 20:48 | 24.44139 | 54.67171 | 210 ft | 142 kts | 308° |
| 2026-05-06 20:48 | 24.44743 | 54.66311 | 88 ft | 139 kts | 308° |
| 2026-05-06 20:48 | 24.45198 | 54.65673 | 87 ft | 74 kts | 308° |
| 2026-05-06 20:49 | 24.45419 | 54.65360 | 85 ft | 41 kts | 307° |
| 2026-05-06 20:49 | 24.45569 | 54.65146 | 67 ft | 31 kts | 302° |
| 2026-05-06 20:49 | 24.45635 | 54.64977 | 75 ft | 21 kts | 288° |
| 2026-05-06 20:49 | 24.45652 | 54.64824 | 84 ft | 19 kts | 277° |
| 2026-05-06 20:50 | 24.45676 | 54.64702 | 84 ft | 13 kts | 293° |
| 2026-05-06 20:50 | 24.45697 | 54.64618 | 80 ft | 8 kts | 262° |
| 2026-05-06 20:50 | 24.45671 | 54.64565 | 83 ft | 6 kts | 218° |
| 2026-05-06 20:50 | 24.45646 | 54.64572 | 86 ft | 4 kts | 152° |
| 2026-05-06 20:51 | 24.45623 | 54.64600 | 83 ft | 6 kts | 128° |
| 2026-05-06 20:51 | 24.45591 | 54.64647 | 86 ft | 9 kts | 126° |
| 2026-05-06 20:51 | 24.45548 | 54.64711 | 85 ft | 12 kts | 127° |
| 2026-05-06 20:51 | 24.45493 | 54.64789 | 86 ft | 14 kts | 127° |
| 2026-05-06 20:52 | 24.45429 | 54.64879 | 84 ft | 16 kts | 129° |
| 2026-05-06 20:52 | 24.45354 | 54.64981 | 85 ft | 17 kts | 127° |
| 2026-05-06 20:52 | 24.45279 | 54.65091 | 86 ft | 19 kts | 127° |
| 2026-05-06 20:52 | 24.45215 | 54.65182 | 85 ft | 8 kts | 128° |
| 2026-05-06 20:53 | 24.45171 | 54.65227 | 86 ft | 9 kts | 161° |
| 2026-05-06 20:53 | 24.45107 | 54.65203 | 85 ft | 11 kts | 216° |
| 2026-05-06 20:53 | 24.45040 | 54.65146 | 86 ft | 14 kts | 218° |
| 2026-05-06 20:53 | 24.44957 | 54.65077 | 87 ft | 16 kts | 217° |
| 2026-05-06 20:54 | 24.44863 | 54.64997 | 87 ft | 18 kts | 217° |
| 2026-05-06 20:54 | 24.44791 | 54.64936 | 87 ft | 10 kts | 218° |
| 2026-05-06 20:54 | 24.44780 | 54.64866 | 84 ft | 10 kts | 290° |
| 2026-05-06 20:54 | 24.44827 | 54.64793 | 86 ft | 13 kts | 307° |
| 2026-05-06 20:55 | 24.44884 | 54.64706 | 86 ft | 15 kts | 302° |
| 2026-05-06 20:55 | 24.44919 | 54.64618 | 85 ft | 8 kts | 288° |
| 2026-05-06 20:55 | 24.44940 | 54.64579 | 84 ft | 5 kts | 325° |
| 2026-05-06 20:55 | 24.44978 | 54.64575 | 85 ft | 7 kts | 11° |
| 2026-05-06 20:56 | 24.45003 | 54.64581 | 86 ft | 0 kts | 13° |
| 2026-05-06 20:56 | 24.45016 | 54.64585 | 84 ft | 0 kts | 13° |
| 2026-05-06 20:56 | 24.45017 | 54.64585 | 84 ft | 0 kts | 13° |